Time;durP1;ratioP1;P1;durP2;ratioP2;P2;SDS_P1;SDS_P2;PMS_P1;PMS_P2;Temp;Humidity;BMP_temperature;BMP_pressure;BME280_temperature;BME280_humidity;BME280_pressure;Samples;Min_cycle;Max_cycle;Signal;HPM_P1;HPM_P2
2022/07/14 00:00:52;;;;;;;;;7.50;7.50;;;;;27.77;35.10;101432.09;4942220;28;45957;-56
2022/07/14 00:03:17;;;;;;;;;10.00;8.25;;;;;27.77;35.22;101427.59;4939851;28;45365;-57
2022/07/14 00:05:42;;;;;;;;;7.00;7.00;;;;;27.77;35.29;101426.75;4941888;28;45239;-56
2022/07/14 00:08:08;;;;;;;;;7.50;7.00;;;;;27.77;35.28;101427.59;4938844;28;59198;-56
2022/07/14 00:10:33;;;;;;;;;10.00;8.75;;;;;27.77;34.91;101432.91;4938141;28;45477;-57
2022/07/14 00:12:59;;;;;;;;;7.00;7.00;;;;;27.77;34.98;101432.91;4938278;28;45617;-55
2022/07/14 00:15:24;;;;;;;;;9.50;8.00;;;;;27.76;35.45;101425.91;4938543;28;45409;-56
2022/07/14 00:17:50;;;;;;;;;9.75;9.00;;;;;27.77;35.34;101422.25;4941844;28;46317;-55
2022/07/14 00:20:16;;;;;;;;;10.00;8.25;;;;;27.76;35.30;101423.22;4957501;28;44713;-55
2022/07/14 00:22:41;;;;;;;;;9.50;8.50;;;;;27.77;35.08;101413.44;4962863;28;45926;-55
2022/07/14 00:25:08;;;;;;;;;11.25;8.00;;;;;27.78;35.22;101407.16;4954416;28;45234;-56
2022/07/14 00:27:35;;;;;;;;;8.75;8.25;;;;;27.77;35.47;101395.63;4938666;28;47091;-57
2022/07/14 00:30:00;;;;;;;;;10.75;8.00;;;;;27.77;35.42;101384.97;4938109;28;45638;-57
2022/07/14 00:32:26;;;;;;;;;11.50;9.00;;;;;27.77;35.37;101384.16;4937850;28;45370;-56
2022/07/14 00:34:51;;;;;;;;;9.00;9.00;;;;;27.77;35.37;101378.81;4938286;28;45923;-57
2022/07/14 00:37:17;;;;;;;;;10.00;8.75;;;;;27.77;35.19;101378.81;4936718;28;56409;-55
2022/07/14 00:39:57;;;;;;;;;7.25;7.25;;;;;27.76;35.48;101374.47;4937271;28;45540;-55
2022/07/14 00:42:28;;;;;;;;;10.00;8.50;;;;;27.76;35.08;101371.78;4938086;28;45315;-56
2022/07/14 00:44:54;;;;;;;;;10.00;9.00;;;;;27.76;35.29;101377.94;4938422;28;45461;-55
2022/07/14 00:47:19;;;;;;;;;8.25;8.00;;;;;27.76;35.25;101380.63;4939348;28;62472;-55
2022/07/14 00:49:44;;;;;;;;;7.00;7.00;;;;;27.77;35.29;101376.16;4941250;28;45366;-58
2022/07/14 00:52:10;;;;;;;;;8.25;8.25;;;;;27.76;35.58;101377.13;4937400;28;45426;-56
2022/07/14 00:54:35;;;;;;;;;7.00;7.00;;;;;27.77;35.47;101378.81;4937707;28;45373;-55
2022/07/14 00:57:01;;;;;;;;;8.00;8.00;;;;;27.77;35.19;101384.97;4940016;28;46021;-55
2022/07/14 00:59:27;;;;;;;;;10.00;8.50;;;;;27.76;35.35;101388.59;4942239;28;45357;-57
2022/07/14 01:01:52;;;;;;;;;7.75;6.75;;;;;27.76;35.14;101382.44;4944388;28;45232;-55
2022/07/14 01:04:18;;;;;;;;;9.75;7.50;;;;;27.77;35.41;101392.13;4944316;28;45225;-55
2022/07/14 01:06:43;;;;;;;;;8.00;8.00;;;;;27.75;35.66;101392.22;4943710;28;52152;-57
2022/07/14 01:09:08;;;;;;;;;11.00;9.50;;;;;27.76;35.06;101399.25;4943600;28;59827;-55
2022/07/14 01:11:34;;;;;;;;;9.00;7.50;;;;;27.76;35.37;101395.75;4944505;28;47325;-56
2022/07/14 01:14:03;;;;;;;;;8.50;8.00;;;;;27.77;35.36;101394.81;4930016;28;45477;-56
2022/07/14 01:16:29;;;;;;;;;9.75;9.50;;;;;27.77;35.56;101398.28;4943919;28;46229;-56
2022/07/14 01:18:54;;;;;;;;;9.00;9.00;;;;;27.76;35.66;101399.25;4948713;28;45428;-57
2022/07/14 01:21:20;;;;;;;;;8.25;8.00;;;;;27.78;35.61;101401.81;4962403;28;44764;-56
2022/07/14 01:23:45;;;;;;;;;9.00;8.75;;;;;27.76;35.47;101404.59;4947592;28;45550;-57
2022/07/14 01:26:10;;;;;;;;;10.00;10.00;;;;;27.77;35.53;101405.44;4940434;28;47078;-56
2022/07/14 01:28:36;;;;;;;;;11.00;11.00;;;;;27.78;35.56;101415.97;4941273;28;45327;-57
2022/07/14 01:31:01;;;;;;;;;13.25;11.75;;;;;27.78;35.43;101415.13;4940114;28;45304;-56
2022/07/14 01:33:27;;;;;;;;;14.25;14.25;;;;;27.77;35.25;101419.59;4940610;28;45325;-55
2022/07/14 01:35:52;;;;;;;;;15.75;15.00;;;;;27.78;35.31;101423.97;4939942;28;46158;-56
2022/07/14 01:38:18;;;;;;;;;14.25;13.25;;;;;27.79;35.25;101424.78;4941148;28;45258;-55
2022/07/14 01:40:44;;;;;;;;;19.75;16.00;;;;;27.80;35.30;101425.66;4943006;28;45382;-58
2022/07/14 01:43:10;;;;;;;;;19.50;18.00;;;;;27.78;35.77;101417.81;4940736;28;45594;-57
2022/07/14 01:45:36;;;;;;;;;17.25;15.50;;;;;27.78;35.62;101418.63;4939503;28;46409;-55
2022/07/14 01:48:01;;;;;;;;;21.25;17.25;;;;;27.78;35.78;101415.97;4939610;28;45564;-55
2022/07/14 01:50:27;;;;;;;;;16.00;14.00;;;;;27.78;35.60;101415.97;4940191;28;45533;-55
2022/07/14 01:52:52;;;;;;;;;13.75;13.50;;;;;27.78;35.35;101413.31;4940028;28;45393;-58
2022/07/14 01:55:18;;;;;;;;;15.00;15.00;;;;;27.78;35.42;101407.97;4940143;28;45363;-57
2022/07/14 01:57:43;;;;;;;;;14.25;12.75;;;;;27.78;35.99;101413.31;4940022;28;45414;-57
2022/07/14 02:00:09;;;;;;;;;14.00;11.25;;;;;27.78;35.47;101407.16;4940273;28;45339;-58
2022/07/14 02:02:34;;;;;;;;;15.50;13.25;;;;;27.78;35.41;101405.31;4942919;28;45536;-56
2022/07/14 02:04:59;;;;;;;;;12.75;11.25;;;;;27.78;35.41;101396.50;4945170;28;46957;-56
2022/07/14 02:07:25;;;;;;;;;12.25;11.50;;;;;27.78;35.31;101402.66;4946100;28;53577;-56
2022/07/14 02:12:34;;;;;;;;;13.75;11.00;;;;;27.78;35.20;101396.50;4946276;28;45370;-56
2022/07/14 02:14:59;;;;;;;;;10.50;10.00;;;;;27.77;35.47;101392.13;4941380;28;46081;-57
2022/07/14 02:17:24;;;;;;;;;12.75;10.25;;;;;27.77;35.46;101390.31;4941707;28;52491;-57
2022/07/14 02:19:50;;;;;;;;;9.50;8.25;;;;;27.77;35.56;101384.16;4941071;28;51498;-56
2022/07/14 02:22:15;;;;;;;;;9.50;9.50;;;;;27.77;35.40;101384.97;4940706;28;45356;-56
2022/07/14 02:24:41;;;;;;;;;8.25;7.75;;;;;27.77;35.38;101382.31;4939769;28;52737;-56
2022/07/14 02:27:07;;;;;;;;;10.50;9.00;;;;;27.76;35.37;101388.59;4938764;28;45784;-56
2022/07/14 02:29:33;;;;;;;;;9.75;8.75;;;;;27.76;35.27;101377.94;4940411;28;45248;-56
2022/07/14 02:31:58;;;;;;;;;7.25;7.25;;;;;27.77;35.50;101379.66;4942977;28;45621;-57
2022/07/14 02:34:24;;;;;;;;;9.00;8.00;;;;;27.76;35.69;101379.78;4940531;28;45504;-55
2022/07/14 02:36:49;;;;;;;;;7.75;7.75;;;;;27.75;35.31;101376.25;4939579;28;45323;-57
2022/07/14 02:39:14;;;;;;;;;9.25;8.00;;;;;27.75;35.07;101381.59;4938499;28;45336;-56
2022/07/14 02:41:41;;;;;;;;;9.75;9.00;;;;;27.75;35.53;101370.94;4939285;28;45489;-57
2022/07/14 02:44:08;;;;;;;;;9.50;9.25;;;;;27.76;35.29;101372.63;4941516;28;47227;-57
2022/07/14 02:46:34;;;;;;;;;9.25;7.00;;;;;27.76;35.11;101369.97;4952842;28;45450;-55
2022/07/14 02:48:59;;;;;;;;;10.75;9.75;;;;;27.75;35.19;101370.09;4949613;28;45462;-56
2022/07/14 02:51:25;;;;;;;;;8.50;7.25;;;;;27.75;35.21;101372.75;4947673;28;45438;-56
2022/07/14 02:53:50;;;;;;;;;9.00;9.00;;;;;27.76;35.32;101374.47;4939902;28;46107;-56
2022/07/14 02:56:16;;;;;;;;;11.75;8.50;;;;;27.75;35.32;101373.59;4940169;28;45463;-57
2022/07/14 02:58:41;;;;;;;;;8.25;8.25;;;;;27.74;35.12;101363.06;4943682;28;45553;-57
2022/07/14 03:01:08;;;;;;;;;10.00;10.00;;;;;27.74;35.26;101363.91;4939349;28;45434;-55
2022/07/14 03:03:34;;;;;;;;;12.50;9.00;;;;;27.74;35.30;101366.56;4939025;28;45323;-57
2022/07/14 03:06:10;;;;;;;;;9.75;9.00;;;;;27.75;35.50;101368.25;4937648;28;45327;-56
2022/07/14 03:08:36;;;;;;;;;8.25;8.25;;;;;27.74;35.52;101369.22;4937728;28;45326;-55
2022/07/14 03:11:02;;;;;;;;;8.50;8.00;;;;;27.74;35.43;101361.25;4939264;28;45472;-56
2022/07/14 03:13:27;;;;;;;;;8.00;8.00;;;;;27.73;35.73;101362.22;4938930;28;45972;-56
2022/07/14 03:15:53;;;;;;;;;7.75;7.25;;;;;27.74;35.61;101365.72;4922412;28;45340;-56
2022/07/14 03:18:18;;;;;;;;;7.00;6.75;;;;;27.74;35.57;101360.41;4949808;28;45401;-55
2022/07/14 03:20:43;;;;;;;;;6.75;6.25;;;;;27.74;35.79;101363.91;4945039;28;45708;-55
2022/07/14 03:23:08;;;;;;;;;9.00;6.75;;;;;27.75;35.48;101367.44;4940941;28;61133;-57
2022/07/14 03:25:34;;;;;;;;;8.50;8.50;;;;;27.74;35.81;101374.56;4941308;28;45294;-55
2022/07/14 03:27:59;;;;;;;;;9.50;9.00;;;;;27.74;35.81;101368.41;4938534;28;45298;-57
2022/07/14 03:30:25;;;;;;;;;8.00;8.00;;;;;27.72;35.64;101363.19;4938809;28;45461;-56
2022/07/14 03:32:50;;;;;;;;;8.50;7.00;;;;;27.73;35.92;101361.38;4938930;28;46147;-56
2022/07/14 03:35:16;;;;;;;;;7.25;7.00;;;;;27.72;35.62;101360.53;4938321;28;45315;-55
2022/07/14 03:37:41;;;;;;;;;8.25;7.50;;;;;27.72;36.06;101360.53;4938283;28;45393;-56
2022/07/14 03:40:08;;;;;;;;;8.00;8.00;;;;;27.72;36.13;101365.00;4939293;28;45346;-57
2022/07/14 03:42:33;;;;;;;;;9.00;9.00;;;;;27.71;36.18;101364.16;4939829;28;45403;-56
2022/07/14 03:44:59;;;;;;;;;7.75;7.50;;;;;27.72;36.55;101365.00;4940003;28;54512;-56
2022/07/14 03:47:24;;;;;;;;;9.00;8.00;;;;;27.70;36.26;101362.47;4939149;28;45323;-57
2022/07/14 03:49:49;;;;;;;;;10.00;8.75;;;;;27.70;36.48;101367.78;4945323;28;45419;-56
2022/07/14 03:52:15;;;;;;;;;7.00;7.00;;;;;27.69;36.33;101358.09;4957173;28;47294;-55
2022/07/14 03:54:44;;;;;;;;;9.75;8.00;;;;;27.69;36.35;101360.78;4944068;28;45223;-54
2022/07/14 03:57:11;;;;;;;;;9.25;9.25;;;;;27.69;36.88;101362.56;4943742;28;45315;-55
2022/07/14 03:59:40;;;;;;;;;7.75;7.75;;;;;27.68;36.49;101356.41;4942662;28;44864;-56
2022/07/14 04:02:14;;;;;;;;;11.00;9.75;;;;;27.67;37.22;101365.38;4964316;28;46368;-57
2022/07/14 04:04:40;;;;;;;;;9.00;9.00;;;;;27.66;37.18;101363.66;4960982;28;45142;-57
2022/07/14 04:07:07;;;;;;;;;9.75;8.50;;;;;27.64;37.29;101360.25;4938848;28;45386;-57
2022/07/14 04:09:32;;;;;;;;;11.00;8.75;;;;;27.62;36.96;101362.19;4955883;28;45549;-57
2022/07/14 04:11:58;;;;;;;;;9.50;9.50;;;;;27.60;37.22;101366.81;4962214;28;45088;-57
2022/07/14 04:14:23;;;;;;;;;8.00;8.00;;;;;27.58;37.66;101366.09;4963635;28;44785;-56
2022/07/14 04:16:49;;;;;;;;;10.75;8.75;;;;;27.54;37.35;101360.16;4953553;28;45415;-57
2022/07/14 04:19:15;;;;;;;;;9.50;9.50;;;;;27.52;37.40;101363.88;4957506;28;45728;-60
2022/07/14 04:21:40;;;;;;;;;8.50;8.50;;;;;27.49;37.44;101364.13;4954382;28;54323;-56
2022/07/14 04:24:06;;;;;;;;;7.50;7.50;;;;;27.46;37.76;101371.38;4955135;28;45319;-56
2022/07/14 04:26:31;;;;;;;;;7.00;6.75;;;;;27.44;37.56;101370.66;4962823;28;44750;-57
2022/07/14 04:28:57;;;;;;;;;7.00;7.00;;;;;27.41;37.79;101372.69;4962537;28;44840;-55
2022/07/14 04:31:23;;;;;;;;;6.75;6.25;;;;;27.38;38.01;101365.78;4961291;28;47020;-56
2022/07/14 04:33:48;;;;;;;;;7.25;6.75;;;;;27.35;37.63;101366.00;4961871;28;44675;-56
2022/07/14 04:36:13;;;;;;;;;7.00;7.00;;;;;27.33;37.91;101373.25;4963255;28;45840;-56
2022/07/14 04:38:39;;;;;;;;;8.75;8.00;;;;;27.31;37.82;101378.72;4955605;28;45132;-56
2022/07/14 04:41:04;;;;;;;;;6.75;6.25;;;;;27.30;38.18;101376.13;4940174;28;46173;-57
2022/07/14 04:43:30;;;;;;;;;7.50;6.50;;;;;27.29;38.17;101369.13;4940362;28;45335;-55
2022/07/14 04:45:55;;;;;;;;;8.25;7.75;;;;;27.27;38.37;101379.06;4957237;28;45366;-58
2022/07/14 04:48:20;;;;;;;;;11.25;8.25;;;;;27.26;38.24;101380.84;4953798;28;45170;-56
2022/07/14 04:53:30;;;;;;;;;7.75;7.75;;;;;27.21;38.28;101372.38;4937536;28;45695;-57
2022/07/14 04:55:56;;;;;;;;;7.75;7.75;;;;;27.20;38.66;101381.34;4937340;28;45381;-57
2022/07/14 04:58:25;;;;;;;;;9.50;8.00;;;;;27.18;38.31;101377.94;4937842;28;45612;-56
2022/07/14 05:00:51;;;;;;;;;8.00;8.00;;;;;27.17;38.56;101377.06;4937539;28;47278;-55
2022/07/14 05:03:16;;;;;;;;;10.50;9.25;;;;;27.17;38.57;101384.22;4937648;28;45336;-56
2022/07/14 05:05:42;;;;;;;;;11.50;11.50;;;;;27.15;38.61;101372.84;4941737;28;45399;-56
2022/07/14 05:08:07;;;;;;;;;9.50;9.50;;;;;27.14;38.42;101376.47;4942706;28;45308;-56
2022/07/14 05:10:33;;;;;;;;;10.00;9.75;;;;;27.13;38.68;101375.63;4937962;28;46575;-58
2022/07/14 05:12:58;;;;;;;;;13.00;9.25;;;;;27.12;38.74;101368.59;4939409;28;45193;-58
2022/07/14 05:15:23;;;;;;;;;11.00;9.75;;;;;27.12;39.13;101375.75;4952517;28;45220;-57
2022/07/14 05:17:49;;;;;;;;;12.00;10.00;;;;;27.10;38.83;101386.50;4941643;28;45328;-56
2022/07/14 05:20:14;;;;;;;;;10.00;9.25;;;;;27.10;38.89;101383.81;4937989;28;45332;-59
2022/07/14 05:22:41;;;;;;;;;9.50;8.25;;;;;27.09;38.92;101376.81;4937061;28;45340;-56
2022/07/14 05:25:11;;;;;;;;;9.00;7.75;;;;;27.09;39.09;101381.28;4938147;28;45778;-58
2022/07/14 05:27:38;;;;;;;;;10.00;9.25;;;;;27.09;38.97;101373.31;4938910;28;45514;-57
2022/07/14 05:30:07;;;;;;;;;8.00;8.00;;;;;27.07;39.20;101376.06;4936525;28;46327;-56
2022/07/14 05:32:35;;;;;;;;;8.00;6.25;;;;;27.07;39.09;101376.06;4940690;28;45327;-58
2022/07/14 05:35:01;;;;;;;;;11.75;11.75;;;;;27.05;39.07;101378.03;4938992;28;45581;-57
2022/07/14 05:37:26;;;;;;;;;11.25;9.00;;;;;27.04;39.22;101373.66;4936640;28;45634;-57
2022/07/14 05:39:52;;;;;;;;;7.50;7.50;;;;;27.04;39.04;101378.97;4936986;28;46140;-56
2022/07/14 05:42:21;;;;;;;;;9.50;8.25;;;;;27.02;39.13;101370.25;4937246;28;45189;-57
2022/07/14 05:44:46;;;;;;;;;9.00;8.75;;;;;27.03;39.33;101373.75;4940369;28;45705;-57
2022/07/14 05:47:12;;;;;;;;;8.25;8.25;;;;;27.04;39.29;101378.13;4940075;28;45455;-58
2022/07/14 05:49:41;;;;;;;;;10.00;10.00;;;;;27.01;39.28;101380.03;4939798;28;45303;-56
2022/07/14 05:52:10;;;;;;;;;10.00;7.75;;;;;26.99;39.56;101389.97;4939837;28;45816;-57
2022/07/14 05:54:35;;;;;;;;;7.50;7.50;;;;;27.00;38.95;101385.47;4940424;28;45253;-56
2022/07/14 05:57:00;;;;;;;;;7.25;7.25;;;;;26.98;39.49;101390.06;4941126;28;45564;-57
2022/07/14 05:59:26;;;;;;;;;9.75;9.00;;;;;26.95;39.81;101390.31;4943278;28;45523;-56
2022/07/14 06:01:51;;;;;;;;;11.00;9.00;;;;;26.95;39.76;101395.63;4944959;28;45402;-56
2022/07/14 06:04:16;;;;;;;;;10.50;8.25;;;;;26.94;39.40;101394.78;4954103;28;45378;-56
2022/07/14 06:06:46;;;;;;;;;9.00;9.00;;;;;26.94;39.50;101385.94;4945430;28;45371;-56
2022/07/14 06:09:12;;;;;;;;;9.00;9.00;;;;;26.93;39.88;101384.25;4941960;28;45998;-58
2022/07/14 06:11:39;;;;;;;;;12.50;10.00;;;;;26.94;39.68;101391.28;4942640;28;45300;-56
2022/07/14 06:14:07;;;;;;;;;12.50;9.50;;;;;26.95;39.83;101398.28;4940611;28;45490;-57
2022/07/14 06:16:32;;;;;;;;;9.00;8.50;;;;;26.96;39.77;101391.97;4940199;28;45426;-57
2022/07/14 06:18:58;;;;;;;;;9.75;9.75;;;;;26.98;39.95;101398.91;4922380;28;46962;-57
2022/07/14 06:21:23;;;;;;;;;10.75;10.25;;;;;26.99;39.63;101403.28;4939390;28;53524;-59
2022/07/14 06:23:48;;;;;;;;;9.25;9.00;;;;;26.97;39.88;101404.31;4943111;28;45331;-58
2022/07/14 06:26:14;;;;;;;;;10.00;10.00;;;;;26.94;39.89;101397.44;4942555;28;45377;-58
2022/07/14 06:28:39;;;;;;;;;10.00;10.00;;;;;26.92;39.85;101399.34;4941682;28;47011;-57
2022/07/14 06:31:05;;;;;;;;;9.75;9.25;;;;;26.93;40.01;101402.88;4941868;28;45517;-58
2022/07/14 06:33:30;;;;;;;;;11.25;9.75;;;;;26.94;40.07;101396.59;4954244;28;45928;-56
2022/07/14 06:35:56;;;;;;;;;12.25;11.00;;;;;26.95;40.02;101414.25;4963756;28;45780;-56
2022/07/14 06:38:21;;;;;;;;;9.00;8.25;;;;;26.96;40.04;101405.28;4950093;28;46044;-55
2022/07/14 06:40:46;;;;;;;;;11.00;9.25;;;;;26.96;40.26;101407.94;4947623;28;45364;-55
2022/07/14 06:43:12;;;;;;;;;6.75;6.75;;;;;26.98;39.73;101408.69;4946008;28;45270;-56
2022/07/14 06:45:39;;;;;;;;;8.25;8.00;;;;;26.99;40.28;101405.06;4946282;28;45239;-57
2022/07/14 06:48:04;;;;;;;;;12.25;11.00;;;;;27.00;40.17;101406.75;4944286;28;46106;-56
2022/07/14 06:50:29;;;;;;;;;7.00;6.75;;;;;27.00;40.04;101406.75;4942119;28;45991;-57
2022/07/14 06:52:55;;;;;;;;;12.00;12.00;;;;;26.99;39.93;101410.38;4940702;28;45280;-57
2022/07/14 06:55:20;;;;;;;;;9.00;9.00;;;;;26.98;40.10;101411.34;4939701;28;45426;-57
2022/07/14 06:57:46;;;;;;;;;11.00;11.00;;;;;26.95;40.33;101404.44;4938732;28;45490;-57
2022/07/14 07:00:12;;;;;;;;;16.50;12.00;;;;;26.92;40.24;101407.31;4939158;28;45789;-57
2022/07/14 07:02:37;;;;;;;;;10.00;10.00;;;;;26.89;40.55;101399.59;4939251;28;45516;-58
2022/07/14 07:07:51;;;;;;;;;13.75;10.25;;;;;26.87;40.24;101405.97;4940482;28;45789;-57
2022/07/14 07:10:17;;;;;;;;;11.00;11.00;;;;;26.86;40.43;101410.44;4943249;28;45439;-59
2022/07/14 07:12:42;;;;;;;;;12.00;10.50;;;;;26.87;40.73;101408.63;4960500;28;44677;-57
2022/07/14 07:15:08;;;;;;;;;11.00;8.00;;;;;26.87;40.47;101411.28;4948558;28;45447;-56
2022/07/14 07:17:33;;;;;;;;;12.00;12.00;;;;;26.87;40.59;101411.28;4941238;28;46162;-57
2022/07/14 07:20:00;;;;;;;;;12.50;10.00;;;;;26.87;40.36;101406.84;4940365;28;49550;-58
2022/07/14 07:22:25;;;;;;;;;10.50;9.25;;;;;26.85;40.71;101406.94;4946477;28;45263;-58
2022/07/14 07:24:50;;;;;;;;;11.00;11.00;;;;;26.84;40.66;101405.22;4939439;28;45505;-57
2022/07/14 07:27:16;;;;;;;;;13.75;10.75;;;;;26.82;40.48;101411.63;4938897;28;46171;-57
2022/07/14 07:29:41;;;;;;;;;11.50;9.75;;;;;26.80;40.84;101406.44;4939119;28;45775;-58
2022/07/14 07:32:07;;;;;;;;;12.00;10.75;;;;;26.80;40.92;101406.44;4941831;28;45232;-58
2022/07/14 07:34:36;;;;;;;;;11.25;11.25;;;;;26.81;40.64;101401.94;4941604;28;45472;-58
2022/07/14 07:37:02;;;;;;;;;11.25;10.50;;;;;26.81;40.66;101391.31;4943340;28;46458;-59
2022/07/14 07:39:27;;;;;;;;;9.75;9.75;;;;;26.80;40.82;101401.13;4959108;28;44649;-56
2022/07/14 07:41:55;;;;;;;;;11.25;11.25;;;;;26.80;40.52;101403.78;4963326;28;44764;-57
2022/07/14 07:44:21;;;;;;;;;11.75;9.00;;;;;26.79;40.89;101399.41;4937664;28;45241;-58
2022/07/14 07:46:46;;;;;;;;;9.75;9.75;;;;;26.79;40.89;101399.41;4939087;28;46162;-57
2022/07/14 07:49:11;;;;;;;;;10.25;10.25;;;;;26.82;40.80;101404.50;4939040;28;45777;-58
2022/07/14 07:51:38;;;;;;;;;11.75;10.25;;;;;26.84;40.73;101401.72;4939022;28;45595;-56
2022/07/14 07:54:05;;;;;;;;;11.50;11.00;;;;;26.87;40.55;101398.00;4938727;28;45630;-58
2022/07/14 07:56:30;;;;;;;;;11.75;9.75;;;;;26.89;40.59;101399.59;4938481;28;47043;-58
2022/07/14 07:58:56;;;;;;;;;12.00;10.75;;;;;26.90;40.72;101397.78;4938438;28;45544;-58
2022/07/14 08:01:22;;;;;;;;;12.50;11.00;;;;;26.90;40.75;101403.09;4939578;28;45360;-58
2022/07/14 08:03:47;;;;;;;;;13.50;10.75;;;;;26.90;40.38;101392.44;4939960;28;45285;-57
2022/07/14 08:06:12;;;;;;;;;11.25;10.25;;;;;26.92;40.77;101398.50;4939406;28;46011;-57
2022/07/14 08:08:38;;;;;;;;;11.75;11.75;;;;;26.93;40.34;101400.22;4941832;28;45236;-57
2022/07/14 08:11:03;;;;;;;;;11.50;10.00;;;;;26.93;40.65;101401.03;4938080;28;45217;-57
2022/07/14 08:13:29;;;;;;;;;13.00;11.25;;;;;26.96;40.91;101399.97;4938256;28;45691;-57
2022/07/14 08:15:57;;;;;;;;;14.00;12.00;;;;;26.98;40.43;101398.03;4937836;28;47153;-58
2022/07/14 08:18:25;;;;;;;;;10.50;10.50;;;;;27.01;40.40;101395.16;4938349;28;45966;-58
2022/07/14 08:20:52;;;;;;;;;12.25;11.25;;;;;27.02;40.38;101388.88;4939016;28;45292;-56
2022/07/14 08:23:18;;;;;;;;;12.75;10.25;;;;;27.05;40.23;101382.47;4939314;28;45629;-57
2022/07/14 08:25:43;;;;;;;;;9.50;9.50;;;;;27.07;40.17;101386.72;4938086;28;46109;-58
2022/07/14 08:28:09;;;;;;;;;10.00;10.00;;;;;27.07;40.06;101385.88;4938006;28;45414;-58
2022/07/14 08:30:34;;;;;;;;;8.00;8.00;;;;;27.08;39.82;101384.91;4938219;28;45287;-58
2022/07/14 08:33:00;;;;;;;;;10.00;8.25;;;;;27.09;39.89;101387.44;4941569;28;45510;-57
2022/07/14 11:39:17;;;;;;;;;5.00;5.00;;;;;28.04;34.18;101359.81;5401200;23;46498;-55
2022/07/14 11:41:46;;;;;;;;;6.50;6.00;;;;;28.07;34.04;101364.88;4938739;28;45412;-58
2022/07/14 11:44:48;;;;;;;;;5.75;5.75;;;;;28.10;34.20;101358.50;4944252;28;46651;-57
2022/07/14 11:47:29;;;;;;;;;6.50;5.50;;;;;28.12;34.13;101358.38;4877805;29;44978;-56
2022/07/14 11:50:05;;;;;;;;;6.25;4.75;;;;;28.13;34.02;101355.56;4950540;28;45370;-55
2022/07/14 11:52:33;;;;;;;;;6.50;5.00;;;;;28.12;33.79;101350.38;4949494;28;45264;-54
2022/07/14 11:55:01;;;;;;;;;6.50;6.50;;;;;28.15;33.65;101366.13;4947321;28;46583;-54
2022/07/14 11:57:27;;;;;;;;;5.75;5.00;;;;;28.15;33.93;101358.97;4949148;28;45784;-55
2022/07/14 11:59:53;;;;;;;;;7.00;5.50;;;;;28.16;33.52;101358.00;4939228;28;45396;-55
2022/07/14 12:02:21;;;;;;;;;5.00;5.00;;;;;28.19;33.31;101354.22;4938512;28;45430;-56
2022/07/14 12:04:55;;;;;;;;;5.50;5.50;;;;;28.20;32.90;101354.13;4938105;28;46380;-55
2022/07/14 12:07:23;;;;;;;;;5.00;5.00;;;;;28.20;32.83;101347.94;4937936;28;45825;-55
2022/07/14 12:09:50;;;;;;;;;5.75;4.25;;;;;28.21;33.10;101353.16;4936916;28;45306;-55
2022/07/14 12:12:17;;;;;;;;;5.50;5.50;;;;;28.23;33.21;101347.69;4938432;28;45568;-56
2022/07/14 12:14:52;;;;;;;;;6.25;5.75;;;;;28.24;32.83;101347.56;4938082;28;45748;-55
2022/07/14 12:17:19;;;;;;;;;4.25;4.25;;;;;28.24;32.78;101355.56;4937886;28;45410;-54
2022/07/14 12:19:46;;;;;;;;;4.50;4.50;;;;;28.26;32.26;101351.91;4939160;28;45461;-55
2022/07/14 12:22:12;;;;;;;;;4.25;4.25;;;;;28.25;32.09;101351.09;4941261;28;45573;-55
2022/07/14 12:24:38;;;;;;;;;6.50;5.00;;;;;28.26;32.04;101342.13;4938337;28;46358;-58
2022/07/14 12:27:09;;;;;;;;;5.00;5.00;;;;;28.27;31.51;101338.50;4920156;28;45267;-55
2022/07/14 12:29:44;;;;;;;;;4.75;4.75;;;;;28.30;31.32;101346.22;4940603;28;45449;-56
2022/07/14 12:32:10;;;;;;;;;3.25;3.25;;;;;28.30;31.62;101335.56;4938715;28;45285;-59
2022/07/14 12:34:37;;;;;;;;;5.50;4.50;;;;;28.30;31.18;101334.72;4939852;28;45421;-57
2022/07/14 12:37:07;;;;;;;;;6.50;4.75;;;;;28.31;31.35;101336.41;4960650;28;45770;-54
2022/07/14 12:39:35;;;;;;;;;5.25;5.25;;;;;28.30;31.30;101340.88;4958939;28;45357;-55
2022/07/14 12:42:03;;;;;;;;;5.00;5.00;;;;;28.32;30.39;101336.28;4949360;28;45343;-56
2022/07/14 12:44:30;;;;;;;;;4.00;4.00;;;;;28.35;30.34;101337.84;4941904;28;45592;-55
2022/07/14 12:47:10;;;;;;;;;5.00;3.25;;;;;28.37;30.37;101341.25;4940839;28;45368;-54
2022/07/14 12:49:46;;;;;;;;;4.50;4.50;;;;;28.39;29.96;101339.28;4939841;28;45460;-53
2022/07/14 12:52:13;;;;;;;;;4.00;4.00;;;;;28.41;29.95;101334.69;4938358;28;45577;-53
2022/07/14 12:54:42;;;;;;;;;3.75;3.75;;;;;28.43;29.80;101351.41;4937886;28;46071;-53
2022/07/14 12:57:19;;;;;;;;;3.00;3.00;;;;;28.46;29.77;101336.97;4937435;28;45470;-57
2022/07/14 12:59:46;;;;;;;;;4.00;4.00;;;;;28.48;29.64;101340.38;4938107;28;45279;-50
2022/07/14 13:02:20;;;;;;;;;4.00;4.00;;;;;28.49;29.66;101342.91;4920217;28;45523;-53
2022/07/14 13:04:48;;;;;;;;;4.75;4.00;;;;;28.50;29.45;101341.94;4937925;28;46078;-53
2022/07/14 13:07:21;;;;;;;;;5.00;5.00;;;;;28.52;29.74;101349.78;4938033;28;45225;-51
2022/07/14 13:10:05;;;;;;;;;5.75;5.00;;;;;28.52;30.10;101348.00;4940005;28;45469;-50
2022/07/14 13:12:31;;;;;;;;;5.00;5.00;;;;;28.53;30.24;101341.69;4945163;28;45425;-53
2022/07/14 13:14:58;;;;;;;;;4.75;4.75;;;;;28.53;29.89;101344.34;4946819;28;45339;-50
2022/07/14 13:17:50;;;;;;;;;4.00;4.00;;;;;28.52;30.32;101341.78;4944136;28;45180;-55
2022/07/14 13:23:28;;;;;;;;;5.75;4.50;;;;;28.46;30.31;101335.16;4950612;28;45244;-56
2022/07/14 13:26:05;;;;;;;;;8.00;6.00;;;;;28.46;30.57;101342.31;4940088;28;46265;-55
2022/07/14 13:28:40;;;;;;;;;4.25;4.25;;;;;28.46;30.78;101331.66;4937556;28;45398;-55
2022/07/14 13:31:08;;;;;;;;;4.50;4.50;;;;;28.47;30.72;101338.69;4919789;28;45429;-55
2022/07/14 13:33:34;;;;;;;;;4.25;4.00;;;;;28.46;30.33;101331.66;4937349;28;45432;-54
2022/07/14 13:36:02;;;;;;;;;4.75;4.75;;;;;28.47;30.28;101341.34;4937084;28;46111;-55
2022/07/14 13:38:28;;;;;;;;;5.00;4.00;;;;;28.47;30.93;101346.69;4939419;28;45648;-55
2022/07/14 13:40:54;;;;;;;;;5.25;5.25;;;;;28.49;30.78;101336.75;4940256;28;45332;-53
2022/07/14 13:43:20;;;;;;;;;6.25;6.00;;;;;28.49;30.68;101336.75;4939235;28;45623;-56
2022/07/14 13:45:48;;;;;;;;;4.00;4.00;;;;;28.49;30.84;101326.06;4928153;28;46883;-55
2022/07/14 13:48:14;;;;;;;;;5.00;5.00;;;;;28.49;30.28;101337.56;4938112;28;45171;-55
2022/07/14 13:53:23;;;;;;;;;6.00;6.00;;;;;28.51;30.77;101337.44;4937421;28;45306;-57
2022/07/14 13:55:48;;;;;;;;;5.00;5.00;;;;;28.50;30.82;101339.28;4942553;28;45466;-55
2022/07/14 13:58:13;;;;;;;;;7.75;7.75;;;;;28.52;30.98;101339.13;4955948;28;46454;-58
2022/07/14 14:00:39;;;;;;;;;6.75;6.00;;;;;28.52;31.00;101333.81;4945404;28;46888;-55
2022/07/14 14:05:53;;;;;;;;;10.50;8.50;;;;;28.52;31.17;101336.47;4943745;28;45322;-52
2022/07/14 14:08:18;;;;;;;;;13.75;13.75;;;;;28.52;31.33;101347.13;4940927;28;45669;-55
2022/07/14 14:10:44;;;;;;;;;16.75;14.00;;;;;28.53;31.00;101343.50;4949697;28;45426;-56
2022/07/14 14:13:12;;;;;;;;;15.75;15.75;;;;;28.53;30.94;101344.34;4952147;28;45282;-56
2022/07/14 14:15:38;;;;;;;;;8.50;8.00;;;;;28.53;31.22;101346.16;4940150;28;45602;-57
2022/07/14 14:18:03;;;;;;;;;14.75;13.25;;;;;28.54;31.28;101342.53;4939526;28;45362;-55
2022/07/14 14:20:29;;;;;;;;;13.75;13.75;;;;;28.50;31.27;101333.94;4939581;28;54944;-56
2022/07/14 14:22:54;;;;;;;;;14.75;14.25;;;;;28.48;31.10;101337.72;4939890;28;45539;-56
2022/07/14 14:25:19;;;;;;;;;16.50;15.50;;;;;28.47;31.73;101338.69;4939468;28;49070;-55
2022/07/14 14:27:45;;;;;;;;;13.50;13.00;;;;;28.47;31.53;101325.34;4939812;28;48612;-55
2022/07/14 14:30:11;;;;;;;;;15.25;14.75;;;;;28.47;31.42;101333.34;4941113;28;45229;-55
2022/07/14 14:32:36;;;;;;;;;15.75;15.00;;;;;28.47;31.85;101331.50;4942282;28;45248;-56
2022/07/14 14:35:03;;;;;;;;;13.50;13.00;;;;;28.48;31.86;101327.03;4939532;28;46193;-56
2022/07/14 14:37:28;;;;;;;;;11.75;11.00;;;;;28.48;31.73;101330.53;4940168;28;46492;-55